createdAt,value
2023-02-11T00:01:33.721Z,101480.60
2023-02-11T00:04:03.947Z,101474.00
2023-02-11T00:06:34.406Z,101461.80
2023-02-11T00:09:03.963Z,101465.00
2023-02-11T00:11:31.851Z,101461.80
2023-02-11T00:14:03.865Z,101469.80
2023-02-11T00:16:32.616Z,101456.20
2023-02-11T00:19:02.828Z,101457.80
2023-02-11T00:21:30.690Z,101439.20
2023-02-11T00:24:02.338Z,101435.20
2023-02-11T00:26:34.533Z,101424.40
2023-02-11T00:29:05.254Z,101410.20
2023-02-11T00:31:34.189Z,101388.20
2023-02-11T00:34:02.677Z,101376.00
2023-02-11T00:36:31.085Z,101374.40
2023-02-11T00:38:59.999Z,101372.40
2023-02-11T00:41:27.855Z,101350.40
2023-02-11T00:43:55.732Z,101339.20
2023-02-11T00:46:24.007Z,101339.80
2023-02-11T00:48:53.490Z,101315.80
2023-02-11T00:51:21.447Z,101314.20
2023-02-11T00:53:49.289Z,101308.40
2023-02-11T00:56:17.215Z,101293.40
2023-02-11T00:58:45.374Z,101284.20
2023-02-11T01:01:14.239Z,101278.00
2023-02-11T01:03:42.496Z,101284.00
2023-02-11T01:06:11.457Z,101272.40
2023-02-11T01:08:40.175Z,101266.60
2023-02-11T01:11:15.423Z,101257.20
2023-02-11T01:13:44.115Z,101239.60
2023-02-11T01:16:15.350Z,101244.80
2023-02-11T01:18:44.555Z,101245.60
2023-02-11T01:21:13.350Z,101251.20
2023-02-11T01:23:41.200Z,101248.00
2023-02-11T01:26:09.121Z,101241.40
2023-02-11T01:28:37.121Z,101242.40
2023-02-11T01:31:05.121Z,101245.00
2023-02-11T01:33:33.136Z,101237.80
2023-02-11T01:36:04.385Z,101235.40
2023-02-11T01:38:33.096Z,101232.40
2023-02-11T01:41:11.839Z,101225.60
2023-02-11T01:43:49.124Z,101221.20
2023-02-11T01:46:32.334Z,101219.60
2023-02-11T01:49:17.328Z,101194.00
2023-02-11T01:52:35.547Z,101192.20
2023-02-11T01:55:28.085Z,101179.80
2023-02-11T01:58:02.704Z,101169.60
2023-02-11T02:00:38.997Z,101165.20
2023-02-11T02:03:13.185Z,101157.60
2023-02-11T02:06:11.092Z,101148.20
2023-02-11T02:09:02.193Z,101146.00
2023-02-11T02:11:30.436Z,101140.40
2023-02-11T02:13:58.440Z,101143.40
2023-02-11T02:16:33.990Z,101130.80
2023-02-11T02:19:26.123Z,101128.60
2023-02-11T02:22:42.830Z,101134.20
2023-02-11T02:25:36.167Z,101133.00
2023-02-11T02:28:41.594Z,101127.00
2023-02-11T02:31:41.708Z,101138.60
2023-02-11T02:34:30.749Z,101125.20
2023-02-11T02:37:09.718Z,101118.60
2023-02-11T02:39:38.715Z,101116.20
2023-02-11T02:42:07.397Z,101106.40
2023-02-11T02:44:35.495Z,101096.40
2023-02-11T02:47:03.502Z,101095.60
2023-02-11T02:49:31.357Z,101091.80
2023-02-11T02:53:05.650Z,101072.00
2023-02-11T02:56:08.666Z,101070.80
2023-02-11T02:58:42.202Z,101064.80
2023-02-11T03:01:42.799Z,101056.80
2023-02-11T03:04:29.103Z,101054.40
2023-02-11T03:07:17.948Z,101051.20
2023-02-11T03:10:02.499Z,101052.60
2023-02-11T03:12:33.378Z,101044.00
2023-02-11T03:15:06.813Z,101037.00
2023-02-11T03:17:41.210Z,101035.60
2023-02-11T03:20:15.141Z,101027.20
2023-02-11T03:22:57.561Z,101023.60
2023-02-11T03:25:39.212Z,101019.20
2023-02-11T03:28:51.508Z,101019.20
2023-02-11T03:31:51.267Z,101015.00
2023-02-11T03:34:42.334Z,101009.60
2023-02-11T03:37:19.995Z,101008.60
2023-02-11T03:40:00.061Z,101010.00
2023-02-11T03:42:36.971Z,101012.60
2023-02-11T03:45:10.332Z,100998.00
2023-02-11T03:47:46.171Z,100984.60
2023-02-11T03:50:16.246Z,100988.00
2023-02-11T03:52:47.035Z,100985.40
2023-02-11T03:55:21.246Z,100982.80
2023-02-11T03:57:49.278Z,100976.40
2023-02-11T04:00:17.390Z,100973.80
2023-02-11T04:02:45.947Z,100978.60
2023-02-11T04:05:16.746Z,100980.40
2023-02-11T04:07:44.544Z,100978.20
2023-02-11T04:10:13.068Z,100984.80
2023-02-11T04:12:41.042Z,100987.40
2023-02-11T04:15:10.095Z,100983.80
2023-02-11T04:17:38.196Z,100972.20
2023-02-11T04:20:06.886Z,100961.20
2023-02-11T04:22:34.754Z,100950.60
2023-02-11T04:25:04.060Z,100952.40
2023-02-11T04:27:32.267Z,100944.60
2023-02-11T04:30:00.059Z,100945.00
2023-02-11T04:32:28.015Z,100941.40
2023-02-11T04:34:55.882Z,100940.80
2023-02-11T04:37:23.731Z,100943.60
2023-02-11T04:39:51.536Z,100937.80
2023-02-11T04:42:19.357Z,100948.60
2023-02-11T04:44:47.251Z,100946.80
2023-02-11T04:47:15.580Z,100934.00
2023-02-11T04:49:43.598Z,100921.60
2023-02-11T04:52:11.430Z,100916.80
2023-02-11T04:54:39.530Z,100919.80
2023-02-11T04:57:07.512Z,100924.40
2023-02-11T04:59:35.318Z,100906.00
2023-02-11T05:02:04.333Z,100895.60
2023-02-11T05:04:32.311Z,100877.40
2023-02-11T05:07:00.165Z,100866.80
2023-02-11T05:09:28.142Z,100858.20
2023-02-11T05:11:56.052Z,100847.00
2023-02-11T05:14:23.860Z,100852.80
2023-02-11T05:16:51.811Z,100833.80
2023-02-11T05:19:19.662Z,100841.00
2023-02-11T05:22:01.447Z,100831.20
2023-02-11T05:24:32.751Z,100830.00
2023-02-11T05:27:00.975Z,100820.80
2023-02-11T05:29:28.999Z,100813.40
2023-02-11T05:31:59.515Z,100819.20
2023-02-11T05:34:27.324Z,100814.60
2023-02-11T05:36:55.693Z,100810.00
2023-02-11T05:39:23.590Z,100808.00
2023-02-11T05:41:51.488Z,100800.60
2023-02-11T05:44:19.559Z,100794.80
2023-02-11T05:46:47.513Z,100793.80
2023-02-11T05:49:17.860Z,100795.00
2023-02-11T05:51:45.758Z,100787.80
2023-02-11T05:54:14.142Z,100778.60
2023-02-11T05:56:44.649Z,100785.60
2023-02-11T05:59:15.013Z,100770.20
2023-02-11T06:01:43.232Z,100764.40
2023-02-11T06:04:11.124Z,100766.00
2023-02-11T06:06:39.082Z,100769.80
2023-02-11T06:09:06.951Z,100763.00
2023-02-11T06:11:34.749Z,100759.60
2023-02-11T06:14:02.643Z,100740.80
2023-02-11T06:16:30.643Z,100740.20
2023-02-11T06:18:58.594Z,100737.00
2023-02-11T06:21:36.383Z,100732.60
2023-02-11T06:24:10.831Z,100735.60
2023-02-11T06:26:38.706Z,100731.60
2023-02-11T06:29:06.554Z,100732.00
2023-02-11T06:31:34.482Z,100722.40
2023-02-11T06:34:02.466Z,100730.00
2023-02-11T06:36:30.416Z,100732.60
2023-02-11T06:38:58.230Z,100727.00
2023-02-11T06:41:26.289Z,100725.20
2023-02-11T06:43:54.499Z,100729.80
2023-02-11T06:46:22.520Z,100727.20
2023-02-11T06:48:50.472Z,100738.00
2023-02-11T06:51:18.405Z,100732.00
2023-02-11T06:53:47.584Z,100733.60
2023-02-11T06:56:20.474Z,100739.00
2023-02-11T06:58:53.622Z,100749.60
2023-02-11T07:01:23.550Z,100760.60
2023-02-11T07:03:51.733Z,100759.20
2023-02-11T07:06:24.908Z,100769.60
2023-02-11T07:08:52.762Z,100768.20
2023-02-11T07:11:25.121Z,100760.00
2023-02-11T07:13:57.844Z,100762.20
2023-02-11T07:16:25.952Z,100762.80
2023-02-11T07:18:54.425Z,100768.80
2023-02-11T07:21:24.375Z,100765.80
2023-02-11T07:23:52.600Z,100748.60
2023-02-11T07:26:23.925Z,100759.00
2023-02-11T07:28:53.438Z,100728.60
2023-02-11T07:31:28.888Z,100729.80
2023-02-11T07:34:00.939Z,100724.60
2023-02-11T07:36:32.158Z,100718.40
2023-02-11T07:39:00.431Z,100718.20
2023-02-11T07:41:28.489Z,100700.40
2023-02-11T07:43:56.728Z,100714.80
2023-02-11T07:46:28.597Z,100717.00
2023-02-11T07:48:56.652Z,100699.00
2023-02-11T07:51:29.043Z,100705.40
2023-02-11T07:53:59.742Z,100688.40
2023-02-11T07:56:30.298Z,100685.00
2023-02-11T07:59:03.378Z,100691.60
2023-02-11T08:01:31.860Z,100683.40
2023-02-11T08:04:02.511Z,100694.20
2023-02-11T08:06:34.830Z,100687.00
2023-02-11T08:09:09.452Z,100697.60
2023-02-11T08:11:37.760Z,100682.20
2023-02-11T08:14:05.715Z,100677.60
2023-02-11T08:16:36.703Z,100680.20
2023-02-11T08:19:14.739Z,100681.60
2023-02-11T08:21:43.837Z,100689.40
2023-02-11T08:24:14.716Z,100680.40
2023-02-11T08:26:43.092Z,100693.00
2023-02-11T08:29:14.318Z,100689.00
2023-02-11T08:31:47.019Z,100690.00
2023-02-11T08:34:18.573Z,100676.60
2023-02-11T08:36:48.537Z,100654.00
2023-02-11T08:39:22.067Z,100645.60
2023-02-11T08:41:54.272Z,100639.40
2023-02-11T08:44:23.552Z,100635.60
2023-02-11T08:46:52.634Z,100625.60
2023-02-11T08:49:22.295Z,100631.00
2023-02-11T08:51:51.398Z,100628.00
2023-02-11T08:54:19.555Z,100623.80
2023-02-11T08:56:51.880Z,100627.00
2023-02-11T08:59:20.223Z,100627.40
2023-02-11T09:01:48.481Z,100629.40
2023-02-11T09:04:16.520Z,100642.60
2023-02-11T09:06:44.408Z,100643.80
2023-02-11T09:09:15.451Z,100655.80
2023-02-11T09:11:45.695Z,100666.00
2023-02-11T09:14:19.861Z,100652.40
2023-02-11T09:16:48.966Z,100655.00
2023-02-11T09:19:18.337Z,100670.00
2023-02-11T09:21:47.094Z,100672.20
2023-02-11T09:24:15.330Z,100671.40
2023-02-11T09:26:43.925Z,100669.20
2023-02-11T09:29:12.055Z,100654.80
2023-02-11T09:31:40.102Z,100636.80
2023-02-11T09:34:08.425Z,100644.40
2023-02-11T09:36:39.507Z,100649.80
2023-02-11T09:39:14.665Z,100659.20
2023-02-11T09:42:15.050Z,100662.20
2023-02-11T09:44:46.581Z,100669.80
2023-02-11T09:47:33.825Z,100669.00
2023-02-11T09:50:14.572Z,100681.40
2023-02-11T09:53:01.799Z,100684.00
2023-02-11T09:55:42.860Z,100679.00
2023-02-11T09:58:28.312Z,100708.20
2023-02-11T10:01:29.861Z,100704.40
2023-02-11T10:04:40.291Z,100700.80
2023-02-11T10:07:25.407Z,100708.00
2023-02-11T10:10:12.680Z,100698.20
2023-02-11T10:13:13.901Z,100688.40
2023-02-11T10:16:19.912Z,100654.60
2023-02-11T10:19:30.445Z,100686.20
2023-02-11T10:22:29.026Z,100685.00
2023-02-11T10:25:09.898Z,100686.60
2023-02-11T10:27:37.898Z,100690.80
2023-02-11T10:30:19.130Z,100700.00
2023-02-11T10:32:57.356Z,100710.20
2023-02-11T10:35:27.296Z,100715.00
2023-02-11T10:37:56.301Z,100724.20
2023-02-11T10:40:30.338Z,100726.60
2023-02-11T10:43:04.796Z,100733.60
2023-02-11T10:45:38.613Z,100743.40
2023-02-11T10:48:39.762Z,100744.00
2023-02-11T10:51:12.791Z,100761.60
2023-02-11T10:53:42.849Z,100772.00
2023-02-11T10:56:22.499Z,100774.00
2023-02-11T10:59:02.463Z,100780.20
2023-02-11T11:01:49.258Z,100791.40
2023-02-11T11:04:44.135Z,100788.80
2023-02-11T11:07:23.208Z,100797.60
2023-02-11T11:10:08.667Z,100805.00
2023-02-11T11:12:46.560Z,100805.40
2023-02-11T11:15:24.098Z,100818.00
2023-02-11T11:18:23.028Z,100817.80
2023-02-11T11:21:05.913Z,100821.60
2023-02-11T11:23:37.243Z,100830.60
2023-02-11T11:26:08.279Z,100829.40
2023-02-11T11:29:16.582Z,100835.60
2023-02-11T11:32:25.575Z,100832.80
2023-02-11T11:35:00.289Z,100843.60
2023-02-11T11:37:39.394Z,100843.00
2023-02-11T11:40:13.368Z,100842.80
2023-02-11T11:42:42.281Z,100848.80
2023-02-11T11:45:16.249Z,100848.20
2023-02-11T11:47:56.031Z,100853.60
2023-02-11T11:50:41.895Z,100856.80
2023-02-11T11:53:25.240Z,100860.80
2023-02-11T11:56:13.937Z,100861.00
2023-02-11T11:58:42.525Z,100864.60
2023-02-11T12:01:54.832Z,100864.00
2023-02-11T12:05:03.203Z,100864.00
2023-02-11T12:07:55.960Z,100862.40
2023-02-11T12:10:58.333Z,100879.80
2023-02-11T12:13:35.240Z,100881.80
2023-02-11T12:16:23.269Z,100887.20
2023-02-11T12:19:44.066Z,100888.00
2023-02-11T12:22:30.658Z,100893.00
2023-02-11T12:25:22.886Z,100887.40
2023-02-11T12:28:35.325Z,100893.80
2023-02-11T12:31:30.012Z,100900.80
2023-02-11T12:34:24.939Z,100900.60
2023-02-11T12:37:31.214Z,100911.40
2023-02-11T12:40:02.149Z,100914.60
2023-02-11T12:43:17.805Z,100912.40
2023-02-11T12:46:37.062Z,100919.40
2023-02-11T12:49:11.000Z,100926.20
2023-02-11T12:52:10.744Z,100919.80
2023-02-11T12:54:54.430Z,100922.00
2023-02-11T12:57:27.726Z,100925.80
2023-02-11T13:00:00.244Z,100929.40
2023-02-11T13:02:59.749Z,100927.60
2023-02-11T13:05:55.385Z,100925.00
2023-02-11T13:08:31.335Z,100930.40
2023-02-11T13:11:08.215Z,100927.80
2023-02-11T13:13:52.614Z,100931.40
2023-02-11T13:16:46.331Z,100942.40
2023-02-11T13:19:14.151Z,100944.40
2023-02-11T13:22:21.220Z,100940.60
2023-02-11T13:25:16.683Z,100955.20
2023-02-11T13:28:42.833Z,100956.80
2023-02-11T13:31:12.986Z,100969.00
2023-02-11T13:33:46.134Z,100964.40
2023-02-11T13:36:25.532Z,100968.40
2023-02-11T13:39:05.171Z,100966.80
2023-02-11T13:41:40.875Z,100975.60
2023-02-11T13:44:08.698Z,100977.00
2023-02-11T13:47:05.598Z,100982.40
2023-02-11T13:49:49.285Z,100992.60
2023-02-11T13:52:37.578Z,100984.20
2023-02-11T13:55:23.467Z,100994.80
2023-02-11T13:58:06.776Z,101000.20
2023-02-11T14:00:34.769Z,101007.20
2023-02-11T14:03:30.770Z,101017.20
2023-02-11T14:06:29.920Z,101021.80
2023-02-11T14:09:37.486Z,101021.60
2023-02-11T14:13:19.814Z,101031.20
2023-02-11T14:15:47.662Z,101046.60
2023-02-11T14:18:53.067Z,101039.20
2023-02-11T14:21:29.739Z,101052.40
2023-02-11T14:24:05.043Z,101050.00
2023-02-11T14:26:54.758Z,101062.40
2023-02-11T14:29:34.261Z,101072.80
2023-02-11T14:32:27.327Z,101079.20
2023-02-11T14:35:07.423Z,101088.00
2023-02-11T14:37:58.548Z,101101.40
2023-02-11T14:40:53.171Z,101108.40
2023-02-11T14:43:30.591Z,101111.40
2023-02-11T14:46:01.565Z,101121.60
2023-02-11T14:48:40.267Z,101118.80
2023-02-11T14:51:29.005Z,101126.60
2023-02-11T14:54:19.632Z,101136.60
2023-02-11T14:56:47.498Z,101145.60
2023-02-11T14:59:23.208Z,101155.60
2023-02-11T15:01:57.078Z,101155.00
2023-02-11T15:04:31.895Z,101165.40
2023-02-11T15:07:08.567Z,101174.40
2023-02-11T15:09:39.444Z,101184.20
2023-02-11T15:12:20.238Z,101195.20
2023-02-11T15:14:53.469Z,101204.40
2023-02-11T15:17:29.361Z,101215.80
2023-02-11T15:20:01.987Z,101225.80
2023-02-11T15:22:36.588Z,101229.40
2023-02-11T15:25:08.128Z,101225.40
2023-02-11T15:27:52.858Z,101231.00
2023-02-11T15:30:23.633Z,101228.00
2023-02-11T15:33:00.188Z,101242.60
2023-02-11T15:35:41.162Z,101246.60
2023-02-11T15:38:13.320Z,101250.40
2023-02-11T15:40:51.503Z,101260.00
2023-02-11T15:43:19.600Z,101272.60
2023-02-11T15:46:03.283Z,101273.40
2023-02-11T15:48:44.954Z,101279.40
2023-02-11T15:51:29.833Z,101293.20
2023-02-11T15:54:02.441Z,101301.60
2023-02-11T15:56:37.712Z,101305.60
2023-02-11T15:59:38.583Z,101312.60
2023-02-11T16:02:20.214Z,101321.40
2023-02-11T16:05:04.637Z,101328.00
2023-02-11T16:07:47.775Z,101336.40
2023-02-11T16:10:32.372Z,101351.20
2023-02-11T16:13:06.393Z,101364.80
2023-02-11T16:15:34.246Z,101371.00
2023-02-11T16:18:12.820Z,101378.40
2023-02-11T16:20:41.264Z,101391.60
2023-02-11T16:23:42.304Z,101402.00
2023-02-11T16:26:25.212Z,101409.40
2023-02-11T16:28:53.942Z,101424.60
2023-02-11T16:31:21.965Z,101429.80
2023-02-11T16:33:49.920Z,101429.60
2023-02-11T16:36:17.793Z,101440.00
2023-02-11T16:38:45.634Z,101451.60
2023-02-11T16:41:14.545Z,101454.00
2023-02-11T16:43:42.434Z,101465.20
2023-02-11T16:46:16.208Z,101476.60
2023-02-11T16:48:45.815Z,101483.00
2023-02-11T16:51:13.837Z,101499.00
2023-02-11T16:53:41.754Z,101497.60
2023-02-11T16:56:18.899Z,101499.80
2023-02-11T16:58:46.848Z,101515.80
2023-02-11T17:01:14.925Z,101515.20
2023-02-11T17:03:43.862Z,101525.40
2023-02-11T17:06:13.685Z,101530.20
2023-02-11T17:08:41.881Z,101540.20
2023-02-11T17:11:10.052Z,101557.20
2023-02-11T17:13:39.721Z,101567.00
2023-02-11T17:16:22.690Z,101568.60
2023-02-11T17:18:51.268Z,101572.40
2023-02-11T17:21:19.227Z,101588.40
2023-02-11T17:23:47.316Z,101594.60
2023-02-11T17:26:15.337Z,101602.60
2023-02-11T17:28:43.624Z,101611.00
2023-02-11T17:31:11.581Z,101618.80
2023-02-11T17:33:39.778Z,101624.40
2023-02-11T17:36:10.164Z,101631.40
2023-02-11T17:38:38.602Z,101648.40
2023-02-11T17:41:06.917Z,101657.40
2023-02-11T17:43:35.354Z,101664.60
2023-02-11T17:46:08.602Z,101674.20
2023-02-11T17:48:39.990Z,101680.80
2023-02-11T17:51:30.736Z,101679.20
2023-02-11T17:54:14.814Z,101688.80
2023-02-11T17:56:43.365Z,101693.80
2023-02-11T17:59:13.829Z,101697.80
2023-02-11T18:01:43.547Z,101695.00
2023-02-11T18:04:19.344Z,101700.20
2023-02-11T18:06:47.726Z,101709.00
2023-02-11T18:09:15.779Z,101712.80
2023-02-11T18:11:44.294Z,101716.80
2023-02-11T18:14:12.459Z,101730.80
2023-02-11T18:16:45.338Z,101735.40
2023-02-11T18:19:14.446Z,101743.60
2023-02-11T18:21:45.791Z,101747.80
2023-02-11T18:24:13.823Z,101749.60
2023-02-11T18:26:41.897Z,101751.00
2023-02-11T18:29:10.391Z,101761.00
2023-02-11T18:31:43.938Z,101762.20
2023-02-11T18:34:16.121Z,101761.60
2023-02-11T18:36:44.705Z,101772.80
2023-02-11T18:39:12.592Z,101783.80
2023-02-11T18:41:43.691Z,101783.40
2023-02-11T18:44:21.266Z,101787.60
2023-02-11T18:46:49.489Z,101794.60
2023-02-11T18:49:19.079Z,101795.00
2023-02-11T18:51:47.264Z,101806.40
2023-02-11T18:54:18.922Z,101808.60
2023-02-11T18:56:46.889Z,101815.20
2023-02-11T18:59:14.799Z,101814.60
2023-02-11T19:01:46.890Z,101825.80
2023-02-11T19:04:20.171Z,101835.20
2023-02-11T19:06:49.952Z,101844.20
2023-02-11T19:09:20.445Z,101845.80
2023-02-11T19:11:51.114Z,101846.80
2023-02-11T19:14:26.425Z,101855.80
2023-02-11T19:16:57.695Z,101861.80
2023-02-11T19:19:29.904Z,101863.20
2023-02-11T19:22:00.741Z,101874.60
2023-02-11T19:24:30.697Z,101883.20
2023-02-11T19:27:02.900Z,101891.80
2023-02-11T19:29:33.502Z,101898.60
2023-02-11T19:32:04.506Z,101906.80
2023-02-11T19:34:33.225Z,101918.80
2023-02-11T19:37:01.816Z,101914.00
2023-02-11T19:39:29.761Z,101917.20
2023-02-11T19:41:57.790Z,101923.80
2023-02-11T19:44:28.714Z,101931.40
2023-02-11T19:46:56.767Z,101939.00
2023-02-11T19:49:26.458Z,101943.20
2023-02-11T19:51:59.679Z,101952.20
2023-02-11T19:54:29.336Z,101960.00
2023-02-11T19:56:58.115Z,101974.00
2023-02-11T19:59:27.148Z,101984.20
2023-02-11T20:01:55.323Z,101985.20
2023-02-11T20:04:25.264Z,101993.00
2023-02-11T20:06:53.137Z,101999.60
2023-02-11T20:09:21.802Z,102000.40
2023-02-11T20:11:49.933Z,101999.80
2023-02-11T20:14:17.939Z,102003.40
2023-02-11T20:16:49.765Z,102010.60
2023-02-11T20:19:21.927Z,102014.60
2023-02-11T20:21:54.099Z,102024.00
2023-02-11T20:24:23.417Z,102020.80
2023-02-11T20:26:55.727Z,102025.20
2023-02-11T20:29:25.772Z,102033.40
2023-02-11T20:31:54.901Z,102039.20
2023-02-11T20:34:23.113Z,102033.60
2023-02-11T20:36:54.397Z,102042.20
2023-02-11T20:39:24.958Z,102054.60
2023-02-11T20:41:54.549Z,102060.00
2023-02-11T20:44:23.661Z,102064.80
2023-02-11T20:46:54.451Z,102073.60
2023-02-11T20:49:25.196Z,102073.40
2023-02-11T20:51:54.086Z,102084.60
2023-02-11T20:54:24.707Z,102079.40
2023-02-11T20:56:58.306Z,102084.20
2023-02-11T20:59:27.051Z,102088.20
2023-02-11T21:01:57.185Z,102099.00
2023-02-11T21:04:29.752Z,102102.80
2023-02-11T21:07:01.217Z,102109.40
2023-02-11T21:09:33.384Z,102113.00
2023-02-11T21:12:04.272Z,102120.60
2023-02-11T21:14:32.196Z,102130.20
2023-02-11T21:17:00.229Z,102138.60
2023-02-11T21:19:28.271Z,102135.80
2023-02-11T21:21:57.494Z,102137.60
2023-02-11T21:24:25.548Z,102132.00
2023-02-11T21:26:53.388Z,102129.20
2023-02-11T21:29:21.218Z,102138.40
2023-02-11T21:31:49.909Z,102144.00
2023-02-11T21:34:18.001Z,102141.20
2023-02-11T21:36:46.053Z,102145.80
2023-02-11T21:39:14.090Z,102151.40
2023-02-11T21:41:41.970Z,102148.20
2023-02-11T21:44:09.822Z,102151.00
2023-02-11T21:46:37.766Z,102163.60
2023-02-11T21:49:05.898Z,102165.60
2023-02-11T21:51:33.730Z,102162.60
2023-02-11T21:54:02.990Z,102170.60
2023-02-11T21:56:33.675Z,102175.60
2023-02-11T21:59:02.202Z,102178.40
2023-02-11T22:01:33.728Z,102181.80
2023-02-11T22:04:01.925Z,102183.40
2023-02-11T22:06:33.391Z,102190.60
2023-02-11T22:09:09.781Z,102191.40
2023-02-11T22:11:38.203Z,102193.60
2023-02-11T22:14:06.229Z,102197.80
2023-02-11T22:16:34.272Z,102197.60
2023-02-11T22:19:07.397Z,102201.20
2023-02-11T22:21:35.508Z,102207.20
2023-02-11T22:24:03.497Z,102210.40
2023-02-11T22:26:31.678Z,102212.00
2023-02-11T22:28:59.598Z,102221.00
2023-02-11T22:31:34.213Z,102221.40
2023-02-11T22:34:04.231Z,102221.20
2023-02-11T22:36:41.709Z,102230.00
2023-02-11T22:39:14.648Z,102230.40
2023-02-11T22:41:44.988Z,102236.80
2023-02-11T22:44:14.157Z,102241.60
2023-02-11T22:46:42.081Z,102241.60
2023-02-11T22:49:14.504Z,102246.60
2023-02-11T22:51:43.076Z,102248.20
2023-02-11T22:54:16.150Z,102251.20
2023-02-11T22:56:45.309Z,102261.00
2023-02-11T22:59:15.591Z,102267.20
2023-02-11T23:01:45.025Z,102269.20
2023-02-11T23:04:17.126Z,102268.20
2023-02-11T23:06:47.700Z,102276.80
2023-02-11T23:09:15.582Z,102277.20
2023-02-11T23:11:44.170Z,102279.00
2023-02-11T23:14:12.363Z,102282.40
2023-02-11T23:16:40.343Z,102278.20
2023-02-11T23:19:10.491Z,102284.20
2023-02-11T23:21:39.972Z,102281.60
2023-02-11T23:24:12.866Z,102283.40
2023-02-11T23:26:43.127Z,102292.00
2023-02-11T23:29:12.363Z,102298.40
2023-02-11T23:31:46.144Z,102302.80
2023-02-11T23:34:18.552Z,102305.00
2023-02-11T23:36:46.676Z,102308.80
2023-02-11T23:39:17.193Z,102304.00
2023-02-11T23:41:46.462Z,102309.80
2023-02-11T23:44:14.399Z,102314.00
2023-02-11T23:46:42.245Z,102313.40
2023-02-11T23:49:10.200Z,102315.80
2023-02-11T23:51:38.458Z,102318.20
2023-02-11T23:54:06.379Z,102320.60
2023-02-11T23:56:37.044Z,102324.20
2023-02-11T23:59:05.663Z,102332.80
